createdAt,value
2022-10-22T00:00:28.608Z,13.34
2022-10-22T00:05:30.617Z,13.33
2022-10-22T00:10:32.641Z,13.26
2022-10-22T00:15:36.131Z,13.20
2022-10-22T00:20:38.091Z,13.23
2022-10-22T00:25:40.020Z,13.15
2022-10-22T00:30:43.584Z,13.05
2022-10-22T00:35:45.646Z,12.98
2022-10-22T00:40:47.414Z,13.01
2022-10-22T00:45:50.506Z,13.03
2022-10-22T00:50:55.156Z,13.05
2022-10-22T00:55:57.428Z,12.94
2022-10-22T01:01:03.067Z,12.90
2022-10-22T01:06:06.151Z,12.88
2022-10-22T01:11:19.791Z,12.88
2022-10-22T01:16:32.323Z,12.86
2022-10-22T01:21:38.378Z,12.82
2022-10-22T01:26:57.847Z,12.81
2022-10-22T01:32:05.524Z,12.75
2022-10-22T01:37:10.172Z,12.72
2022-10-22T01:42:12.754Z,12.73
2022-10-22T01:47:24.442Z,12.69
2022-10-22T01:52:38.789Z,12.73
2022-10-22T01:57:46.879Z,12.67
2022-10-22T02:03:00.409Z,12.60
2022-10-22T02:08:07.062Z,12.55
2022-10-22T02:13:12.948Z,12.49
2022-10-22T02:18:19.626Z,12.43
2022-10-22T02:23:22.455Z,12.42
2022-10-22T02:28:29.042Z,12.34
2022-10-22T02:33:37.810Z,12.25
2022-10-22T02:38:41.863Z,12.21
2022-10-22T02:43:50.134Z,12.19
2022-10-22T02:48:53.463Z,12.20
2022-10-22T02:53:55.544Z,12.31
2022-10-22T02:58:57.922Z,12.27
2022-10-22T03:04:01.401Z,12.24
2022-10-22T03:09:03.252Z,12.18
2022-10-22T03:14:05.292Z,12.13
2022-10-22T03:19:08.551Z,12.13
2022-10-22T03:24:15.292Z,12.09
2022-10-22T03:29:17.824Z,12.13
2022-10-22T03:34:21.334Z,12.13
2022-10-22T03:39:23.946Z,12.18
2022-10-22T03:44:26.722Z,12.21
2022-10-22T03:49:30.308Z,12.19
2022-10-22T03:54:32.666Z,12.21
2022-10-22T03:59:35.808Z,12.24
2022-10-22T04:04:39.010Z,12.21
2022-10-22T04:09:40.902Z,12.16
2022-10-22T04:14:42.997Z,12.14
2022-10-22T04:19:46.311Z,12.12
2022-10-22T04:24:48.420Z,12.06
2022-10-22T04:29:50.606Z,12.00
2022-10-22T04:34:54.136Z,11.95
2022-10-22T04:39:58.109Z,11.97
2022-10-22T04:45:00.165Z,12.04
2022-10-22T04:50:04.478Z,11.97
2022-10-22T04:55:06.740Z,11.92
2022-10-22T05:00:09.977Z,11.83
2022-10-22T05:05:13.131Z,11.81
2022-10-22T05:10:15.214Z,11.78
2022-10-22T05:15:17.516Z,11.78
2022-10-22T05:20:20.919Z,11.74
2022-10-22T05:25:22.831Z,11.69
2022-10-22T05:30:25.117Z,11.75
2022-10-22T05:35:28.529Z,11.70
2022-10-22T05:40:31.375Z,11.71
2022-10-22T05:45:36.962Z,11.76
2022-10-22T05:50:40.329Z,11.78
2022-10-22T05:55:42.299Z,11.72
2022-10-22T06:00:46.677Z,11.66
2022-10-22T06:05:50.307Z,11.68
2022-10-22T06:10:52.335Z,11.71
2022-10-22T06:15:54.483Z,11.75
2022-10-22T06:21:04.656Z,11.73
2022-10-22T06:26:07.152Z,11.76
2022-10-22T06:31:10.245Z,11.83
2022-10-22T06:36:18.915Z,11.90
2022-10-22T06:41:24.400Z,11.95
2022-10-22T06:46:29.576Z,12.11
2022-10-22T06:51:33.054Z,12.23
2022-10-22T06:56:35.082Z,12.39
2022-10-22T07:01:38.334Z,12.50
2022-10-22T07:06:41.980Z,12.62
2022-10-22T07:11:46.140Z,12.78
2022-10-22T07:16:48.250Z,12.79
2022-10-22T07:21:51.686Z,13.26
2022-10-22T07:26:53.995Z,13.68
2022-10-22T07:31:56.326Z,13.77
2022-10-22T07:36:59.790Z,13.78
2022-10-22T07:42:01.907Z,13.91
2022-10-22T07:47:03.846Z,14.01
2022-10-22T07:52:08.226Z,14.13
2022-10-22T07:57:10.324Z,14.23
2022-10-22T08:02:13.005Z,14.39
2022-10-22T08:07:16.200Z,14.43
2022-10-22T08:12:18.049Z,14.24
2022-10-22T08:17:19.719Z,14.37
2022-10-22T08:22:23.175Z,14.47
2022-10-22T08:27:25.206Z,14.53
2022-10-22T08:37:35.902Z,14.94
2022-10-22T08:43:03.861Z,15.03
2022-10-22T08:48:20.722Z,15.40
2022-10-22T08:53:30.692Z,15.54
2022-10-22T08:58:38.346Z,15.61
2022-10-22T09:03:49.934Z,15.84
2022-10-22T09:08:54.827Z,15.92
2022-10-22T09:13:58.467Z,16.22
2022-10-22T09:19:18.293Z,16.23
2022-10-22T09:24:32.976Z,16.36
2022-10-22T09:29:35.703Z,16.44
2022-10-22T09:34:38.665Z,16.77
2022-10-22T09:39:45.509Z,16.95
2022-10-22T09:44:53.268Z,17.01
2022-10-22T09:50:07.417Z,17.02
2022-10-22T09:55:16.372Z,17.09
2022-10-22T10:00:20.747Z,17.82
2022-10-22T10:05:27.319Z,18.92
2022-10-22T10:10:36.968Z,18.71
2022-10-22T10:15:46.692Z,17.79
2022-10-22T10:20:57.923Z,17.76
2022-10-22T10:26:09.327Z,17.76
2022-10-22T10:31:20.886Z,17.58
2022-10-22T10:36:33.308Z,18.45
2022-10-22T10:41:49.213Z,24.13
2022-10-22T10:46:59.907Z,26.69
2022-10-22T10:52:10.871Z,28.33
2022-10-22T10:57:25.035Z,25.34
2022-10-22T11:02:47.809Z,25.93
2022-10-22T11:07:56.449Z,25.65
2022-10-22T11:13:07.580Z,23.83
2022-10-22T11:18:17.817Z,22.65
2022-10-22T11:23:27.924Z,22.12
2022-10-22T11:28:35.657Z,21.10
2022-10-22T11:33:46.048Z,20.52
2022-10-22T11:38:48.788Z,20.23
2022-10-22T11:44:08.194Z,20.17
2022-10-22T11:49:24.244Z,19.78
2022-10-22T11:54:32.345Z,19.93
2022-10-22T11:59:39.633Z,20.13
2022-10-22T12:04:41.953Z,20.08
2022-10-22T12:09:44.111Z,20.01
2022-10-22T12:14:56.839Z,20.05
2022-10-22T12:20:02.769Z,20.07
2022-10-22T12:25:15.926Z,20.10
2022-10-22T12:30:21.315Z,20.31
2022-10-22T12:35:25.192Z,20.72
2022-10-22T12:40:29.467Z,20.89
2022-10-22T12:45:35.163Z,20.97
2022-10-22T12:50:41.284Z,20.91
2022-10-22T12:55:46.563Z,20.85
2022-10-22T13:00:55.107Z,20.86
2022-10-22T13:05:57.335Z,20.68
2022-10-22T13:11:08.863Z,20.78
2022-10-22T13:16:19.152Z,20.52
2022-10-22T13:21:24.560Z,20.81
2022-10-22T13:26:33.784Z,20.75
2022-10-22T13:31:37.542Z,20.78
2022-10-22T13:36:39.584Z,20.75
2022-10-22T13:41:41.743Z,20.57
2022-10-22T13:46:45.055Z,20.62
2022-10-22T13:51:47.568Z,20.49
2022-10-22T13:56:49.730Z,20.39
2022-10-22T14:01:53.060Z,20.52
2022-10-22T14:06:56.740Z,20.59
2022-10-22T14:12:00.630Z,20.37
2022-10-22T14:17:04.548Z,19.74
2022-10-22T14:22:10.152Z,19.56
2022-10-22T14:27:13.593Z,19.58
2022-10-22T14:32:18.853Z,19.88
2022-10-22T14:37:20.991Z,19.78
2022-10-22T14:42:23.291Z,19.60
2022-10-22T14:47:26.653Z,19.59
2022-10-22T14:52:28.677Z,19.73
2022-10-22T14:57:30.714Z,19.55
2022-10-22T15:02:34.554Z,19.17
2022-10-22T15:07:37.360Z,18.97
2022-10-22T15:12:39.349Z,18.70
2022-10-22T15:17:43.064Z,18.42
2022-10-22T15:22:45.144Z,18.14
2022-10-22T15:27:50.366Z,18.40
2022-10-22T15:32:54.955Z,18.75
2022-10-22T15:37:56.722Z,18.69
2022-10-22T15:42:58.862Z,18.37
2022-10-22T15:48:02.471Z,17.94
2022-10-22T15:53:04.516Z,17.76
2022-10-22T15:58:06.758Z,17.51
2022-10-22T16:03:10.127Z,17.17
2022-10-22T16:08:12.138Z,16.94
2022-10-22T16:13:14.214Z,16.65
2022-10-22T16:18:17.306Z,16.13
2022-10-22T16:23:19.235Z,16.09
2022-10-22T16:28:21.070Z,15.89
2022-10-22T16:33:24.454Z,15.66
2022-10-22T16:38:27.030Z,15.45
2022-10-22T16:43:29.508Z,15.10
2022-10-22T16:48:33.465Z,15.02
2022-10-22T16:53:35.814Z,14.73
2022-10-22T16:58:38.455Z,14.76
2022-10-22T17:03:41.793Z,14.76
2022-10-22T17:08:43.809Z,14.68
2022-10-22T17:13:47.408Z,14.64
2022-10-22T17:18:54.201Z,14.55
2022-10-22T17:23:56.817Z,14.58
2022-10-22T17:28:59.167Z,14.34
2022-10-22T17:34:02.528Z,14.58
2022-10-22T17:39:07.063Z,14.80
2022-10-22T17:44:10.293Z,14.85
2022-10-22T17:49:19.712Z,15.02
2022-10-22T17:54:21.633Z,15.04
2022-10-22T17:59:23.283Z,14.99
2022-10-22T18:04:26.523Z,15.11
2022-10-22T18:09:28.275Z,15.16
2022-10-22T18:14:30.318Z,15.15
2022-10-22T18:19:33.404Z,15.23
2022-10-22T18:24:36.509Z,15.12
2022-10-22T18:29:38.695Z,15.06
2022-10-22T18:34:42.253Z,15.03
2022-10-22T18:39:43.899Z,14.99
2022-10-22T18:44:46.136Z,14.92
2022-10-22T18:49:49.178Z,15.00
2022-10-22T18:54:51.049Z,14.98
2022-10-22T18:59:54.661Z,14.89
2022-10-22T19:05:00.677Z,14.66
2022-10-22T19:10:03.072Z,14.63
2022-10-22T19:15:06.542Z,14.59
2022-10-22T19:20:10.614Z,14.53
2022-10-22T19:25:12.427Z,14.38
2022-10-22T19:30:14.637Z,14.30
2022-10-22T19:35:18.166Z,14.24
2022-10-22T19:40:20.196Z,14.29
2022-10-22T19:45:22.064Z,14.30
2022-10-22T19:50:25.424Z,14.27
2022-10-22T19:55:27.132Z,14.27
2022-10-22T20:00:28.792Z,14.28
2022-10-22T20:05:32.159Z,14.33
2022-10-22T20:10:34.158Z,14.49
2022-10-22T20:15:36.789Z,14.66
2022-10-22T20:20:39.985Z,14.77
2022-10-22T20:25:43.123Z,14.83
2022-10-22T20:30:45.826Z,14.85
2022-10-22T20:35:59.271Z,14.89
2022-10-22T20:41:03.862Z,14.84
2022-10-22T20:46:06.473Z,14.85
2022-10-22T20:51:09.856Z,14.97
2022-10-22T20:56:13.011Z,15.00
2022-10-22T21:01:15.594Z,15.02
2022-10-22T21:06:20.177Z,15.02
2022-10-22T21:11:21.915Z,15.02
2022-10-22T21:16:23.537Z,15.01
2022-10-22T21:21:27.209Z,14.98
2022-10-22T21:26:29.439Z,14.96
2022-10-22T21:31:32.027Z,14.92
2022-10-22T21:36:35.841Z,14.86
2022-10-22T21:41:38.226Z,14.88
2022-10-22T21:46:40.602Z,14.75
2022-10-22T21:51:44.213Z,14.61
2022-10-22T21:56:46.221Z,14.44
2022-10-22T22:01:48.284Z,14.16
2022-10-22T22:06:51.765Z,14.01
2022-10-22T22:11:53.748Z,13.80
2022-10-22T22:16:55.415Z,13.66
2022-10-22T22:21:58.937Z,13.41
2022-10-22T22:27:01.147Z,13.28
2022-10-22T22:32:03.226Z,13.07
2022-10-22T22:37:06.963Z,12.85
2022-10-22T22:42:09.123Z,12.66
2022-10-22T22:47:11.088Z,12.54
2022-10-22T22:52:14.117Z,12.33
2022-10-22T22:57:15.808Z,12.25
2022-10-22T23:02:17.739Z,12.06
2022-10-22T23:07:20.774Z,12.04
2022-10-22T23:12:23.138Z,11.89
2022-10-22T23:17:25.200Z,11.90
2022-10-22T23:22:28.557Z,11.93
2022-10-22T23:27:30.519Z,11.76
2022-10-22T23:32:32.564Z,11.77
2022-10-22T23:37:36.061Z,11.59
2022-10-22T23:47:41.403Z,11.34
2022-10-22T23:52:45.766Z,11.15
2022-10-22T23:57:47.593Z,11.05
